createdAt,value
2022-08-05T00:00:50.357Z,21.82
2022-08-05T00:06:04.935Z,20.60
2022-08-05T00:11:20.537Z,19.86
2022-08-05T00:16:35.548Z,19.37
2022-08-05T00:21:39.412Z,19.02
2022-08-05T00:26:50.705Z,18.73
2022-08-05T00:32:10.996Z,18.47
2022-08-05T00:37:17.347Z,19.78
2022-08-05T00:42:32.112Z,22.67
2022-08-05T00:47:57.404Z,21.63
2022-08-05T00:52:58.623Z,20.39
2022-08-05T00:58:01.614Z,19.72
2022-08-05T01:03:08.123Z,19.18
2022-08-05T01:08:30.267Z,18.76
2022-08-05T01:13:57.997Z,18.37
2022-08-05T01:19:30.430Z,18.05
2022-08-05T01:24:52.128Z,17.77
2022-08-05T01:30:02.217Z,17.55
2022-08-05T01:35:11.396Z,17.37
2022-08-05T01:40:35.061Z,17.21
2022-08-05T01:45:43.002Z,18.56
2022-08-05T01:50:51.143Z,21.74
2022-08-05T01:55:58.936Z,20.96
2022-08-05T02:01:08.086Z,19.61
2022-08-05T02:06:33.799Z,18.89
2022-08-05T02:11:48.133Z,18.33
2022-08-05T02:16:58.366Z,17.92
2022-08-05T02:22:25.875Z,17.57
2022-08-05T02:27:59.810Z,17.27
2022-08-05T02:33:00.342Z,18.80
2022-08-05T02:38:05.264Z,21.59
2022-08-05T02:43:14.273Z,20.43
2022-08-05T02:48:19.787Z,19.18
2022-08-05T02:53:39.005Z,18.44
2022-08-05T02:58:44.062Z,17.97
2022-08-05T03:04:02.613Z,17.62
2022-08-05T03:09:07.711Z,18.86
2022-08-05T03:14:13.306Z,21.71
2022-08-05T03:19:32.964Z,20.64
2022-08-05T03:24:37.681Z,19.34
2022-08-05T03:29:45.343Z,18.65
2022-08-05T03:35:04.563Z,18.13
2022-08-05T03:40:12.062Z,17.78
2022-08-05T03:45:21.363Z,17.52
2022-08-05T03:50:33.871Z,18.91
2022-08-05T03:56:05.719Z,21.86
2022-08-05T04:01:11.242Z,20.67
2022-08-05T04:06:18.097Z,19.59
2022-08-05T04:11:23.592Z,19.02
2022-08-05T04:16:45.723Z,18.61
2022-08-05T04:22:08.236Z,18.31
2022-08-05T04:27:15.320Z,18.12
2022-08-05T04:32:30.670Z,19.63
2022-08-05T04:38:02.285Z,22.56
2022-08-05T04:42:57.759Z,21.47
2022-08-05T04:48:04.891Z,20.51
2022-08-05T04:53:09.295Z,20.03
2022-08-05T04:58:14.951Z,19.77
2022-08-05T05:03:24.466Z,19.64
2022-08-05T05:08:30.080Z,20.99
2022-08-05T05:13:43.004Z,23.24
2022-08-05T05:19:08.854Z,22.13
2022-08-05T05:24:09.352Z,21.56
2022-08-05T05:29:14.380Z,21.36
2022-08-05T05:34:22.537Z,21.27
2022-08-05T05:39:31.680Z,21.28
2022-08-05T05:44:45.899Z,21.37
2022-08-05T05:49:52.514Z,21.52
2022-08-05T05:55:01.119Z,21.71
2022-08-05T06:00:10.413Z,21.93
2022-08-05T06:05:16.779Z,22.18
2022-08-05T06:10:19.957Z,22.46
2022-08-05T06:16:27.592Z,22.75
2022-08-05T06:20:49.231Z,23.07
2022-08-05T06:26:13.927Z,23.37
2022-08-05T06:31:30.436Z,23.72
2022-08-05T06:36:53.498Z,24.03
2022-08-05T06:41:59.154Z,24.34
2022-08-05T06:47:02.243Z,24.65
2022-08-05T06:52:05.743Z,24.95
2022-08-05T06:57:57.836Z,25.25
2022-08-05T07:02:32.365Z,25.55
2022-08-05T07:07:43.901Z,25.82
2022-08-05T07:13:05.693Z,26.08
2022-08-05T07:18:10.323Z,26.33
2022-08-05T07:23:26.082Z,26.56
2022-08-05T07:28:29.581Z,26.78
2022-08-05T07:33:36.420Z,26.96
2022-08-05T07:38:42.797Z,27.14
2022-08-05T07:43:47.746Z,27.32
2022-08-05T07:49:02.069Z,27.48
2022-08-05T07:54:10.113Z,27.67
2022-08-05T07:59:13.160Z,27.79
2022-08-05T08:04:17.269Z,27.96
2022-08-05T08:09:37.435Z,28.20
2022-08-05T08:14:46.857Z,28.40
2022-08-05T08:20:42.778Z,28.64
2022-08-05T08:25:16.332Z,28.82
2022-08-05T08:30:33.971Z,29.01
2022-08-05T08:35:53.832Z,29.20
2022-08-05T08:41:08.726Z,29.38
2022-08-05T08:46:16.164Z,29.52
2022-08-05T08:52:01.987Z,29.61
2022-08-05T08:56:47.383Z,29.72
2022-08-05T09:01:57.301Z,29.77
2022-08-05T09:07:10.649Z,29.84
2022-08-05T09:12:27.417Z,29.96
2022-08-05T09:17:41.106Z,30.06
2022-08-05T09:23:05.575Z,30.17
2022-08-05T09:28:23.503Z,30.27
2022-08-05T09:33:35.218Z,30.41
2022-08-05T09:38:38.110Z,30.52
2022-08-05T09:43:42.302Z,30.67
2022-08-05T09:49:07.039Z,30.81
2022-08-05T09:54:09.512Z,30.90
2022-08-05T09:59:17.030Z,31.00
2022-08-05T10:04:28.683Z,31.08
2022-08-05T10:09:44.853Z,31.15
2022-08-05T10:14:48.234Z,31.20
2022-08-05T10:20:04.041Z,31.12
2022-08-05T10:25:14.350Z,31.09
2022-08-05T10:31:19.959Z,31.15
2022-08-05T10:35:44.239Z,31.14
2022-08-05T10:40:58.167Z,31.23
2022-08-05T10:46:10.489Z,31.35
2022-08-05T10:51:22.475Z,31.38
2022-08-05T10:56:26.139Z,31.45
2022-08-05T11:01:55.336Z,31.52
2022-08-05T11:07:06.766Z,31.62
2022-08-05T11:12:24.682Z,31.60
2022-08-05T11:18:00.087Z,31.62
2022-08-05T11:22:54.009Z,31.64
2022-08-05T11:28:11.657Z,31.71
2022-08-05T11:33:43.986Z,31.84
2022-08-05T11:38:51.760Z,31.93
2022-08-05T11:44:05.902Z,32.02
2022-08-05T11:49:16.297Z,32.19
2022-08-05T11:54:33.633Z,32.35
2022-08-05T11:59:49.814Z,32.43
2022-08-05T12:04:59.528Z,32.49
2022-08-05T12:10:09.089Z,32.67
2022-08-05T12:15:37.939Z,32.80
2022-08-05T12:20:41.584Z,32.92
2022-08-05T12:25:56.796Z,33.00
2022-08-05T12:31:01.955Z,33.06
2022-08-05T12:36:07.880Z,33.10
2022-08-05T12:41:16.346Z,33.24
2022-08-05T12:46:31.426Z,33.31
2022-08-05T12:52:14.355Z,33.41
2022-08-05T12:57:15.448Z,33.59
2022-08-05T13:02:30.410Z,33.72
2022-08-05T13:07:59.253Z,33.77
2022-08-05T13:12:58.462Z,33.89
2022-08-05T13:18:02.085Z,34.12
2022-08-05T13:23:07.340Z,34.39
2022-08-05T13:28:10.603Z,34.54
2022-08-05T13:33:14.218Z,34.58
2022-08-05T13:38:28.307Z,34.77
2022-08-05T13:43:45.723Z,35.07
2022-08-05T13:49:00.734Z,35.28
2022-08-05T13:54:12.579Z,35.22
2022-08-05T13:59:19.471Z,35.05
2022-08-05T14:04:42.358Z,34.85
2022-08-05T14:09:46.364Z,34.56
2022-08-05T14:14:49.816Z,34.40
2022-08-05T14:20:00.851Z,34.24
2022-08-05T14:25:21.408Z,34.14
2022-08-05T14:30:28.172Z,34.43
2022-08-05T14:35:36.916Z,34.86
2022-08-05T14:40:54.293Z,35.24
2022-08-05T14:45:56.984Z,35.90
2022-08-05T14:50:59.679Z,36.26
2022-08-05T14:56:06.043Z,36.38
2022-08-05T15:01:11.195Z,36.43
2022-08-05T15:06:19.065Z,36.34
2022-08-05T15:11:51.651Z,36.15
2022-08-05T15:16:56.446Z,36.08
2022-08-05T15:22:01.278Z,36.78
2022-08-05T15:27:04.471Z,37.41
2022-08-05T15:32:12.043Z,38.12
2022-08-05T15:37:19.375Z,38.83
2022-08-05T15:42:54.748Z,39.32
2022-08-05T15:47:59.737Z,39.80
2022-08-05T15:53:05.770Z,40.27
2022-08-05T15:58:16.503Z,40.42
2022-08-05T16:03:19.818Z,40.52
2022-08-05T16:08:23.984Z,40.83
2022-08-05T16:13:34.498Z,41.23
2022-08-05T16:18:52.268Z,41.20
2022-08-05T16:23:58.040Z,40.75
2022-08-05T16:29:04.365Z,40.15
2022-08-05T16:34:11.120Z,38.97
2022-08-05T16:39:14.284Z,39.00
2022-08-05T16:44:18.262Z,39.73
2022-08-05T16:49:23.875Z,40.42
2022-08-05T16:54:31.913Z,40.49
2022-08-05T16:59:35.895Z,40.49
2022-08-05T17:04:58.659Z,40.70
2022-08-05T17:10:01.416Z,40.28
2022-08-05T17:15:07.492Z,38.69
2022-08-05T17:20:14.568Z,37.05
2022-08-05T17:25:22.192Z,35.77
2022-08-05T17:30:42.501Z,35.28
2022-08-05T17:36:07.423Z,35.35
2022-08-05T17:42:16.822Z,35.28
2022-08-05T17:46:35.905Z,34.97
2022-08-05T17:51:40.119Z,34.58
2022-08-05T17:56:44.657Z,33.73
2022-08-05T18:01:51.790Z,32.77
2022-08-05T18:06:54.765Z,31.99
2022-08-05T18:12:03.617Z,31.21
2022-08-05T18:17:06.982Z,30.47
2022-08-05T18:22:36.188Z,29.77
2022-08-05T18:27:52.255Z,29.15
2022-08-05T18:33:00.770Z,28.59
2022-08-05T18:38:03.992Z,28.06
2022-08-05T18:43:09.133Z,27.56
2022-08-05T18:48:31.619Z,27.10
2022-08-05T18:53:45.950Z,26.68
2022-08-05T18:58:55.002Z,26.28
2022-08-05T19:04:05.498Z,25.89
2022-08-05T19:09:08.333Z,25.51
2022-08-05T19:14:59.449Z,25.15
2022-08-05T19:19:33.741Z,24.73
2022-08-05T19:24:36.974Z,24.46
2022-08-05T19:29:58.336Z,24.30
2022-08-05T19:35:06.408Z,24.16
2022-08-05T19:40:10.813Z,24.01
2022-08-05T19:45:14.578Z,23.88
2022-08-05T19:50:17.495Z,23.75
2022-08-05T19:56:14.237Z,23.63
2022-08-05T20:00:43.148Z,23.49
2022-08-05T20:05:51.478Z,23.37
2022-08-05T20:10:55.231Z,23.24
2022-08-05T20:15:58.033Z,23.10
2022-08-05T20:21:04.505Z,22.96
2022-08-05T20:26:16.474Z,22.82
2022-08-05T20:31:22.868Z,22.67
2022-08-05T20:36:31.328Z,22.54
2022-08-05T20:41:44.439Z,24.55
2022-08-05T20:46:48.186Z,26.09
2022-08-05T20:51:54.222Z,24.78
2022-08-05T20:56:57.979Z,24.06
2022-08-05T21:02:00.717Z,23.63
2022-08-05T21:07:04.600Z,23.27
2022-08-05T21:12:11.611Z,22.94
2022-08-05T21:17:15.389Z,22.70
2022-08-05T21:22:21.763Z,22.52
2022-08-05T21:27:27.419Z,23.82
2022-08-05T21:32:30.540Z,26.61
2022-08-05T21:37:35.049Z,25.96
2022-08-05T21:42:45.149Z,24.79
2022-08-05T21:47:57.208Z,24.20
2022-08-05T21:53:08.409Z,25.81
2022-08-05T21:58:20.648Z,25.20
2022-08-05T22:03:52.185Z,24.35
2022-08-05T22:08:56.242Z,23.95
2022-08-05T22:14:05.829Z,24.79
2022-08-05T22:20:01.116Z,26.52
2022-08-05T22:25:04.132Z,25.01
2022-08-05T22:30:13.973Z,24.08
2022-08-05T22:35:16.724Z,25.75
2022-08-05T22:40:20.409Z,25.62
2022-08-05T22:45:26.260Z,24.31
2022-08-05T22:50:29.010Z,25.41
2022-08-05T22:55:56.748Z,25.30
2022-08-05T23:00:54.676Z,24.33
2022-08-05T23:05:59.981Z,26.05
2022-08-05T23:11:04.098Z,24.98
2022-08-05T23:16:06.967Z,26.12
2022-08-05T23:21:11.102Z,25.20
2022-08-05T23:26:20.089Z,25.79
2022-08-05T23:31:24.434Z,26.16
2022-08-05T23:36:28.318Z,25.13
2022-08-05T23:41:41.167Z,25.97
2022-08-05T23:46:51.775Z,25.64
2022-08-05T23:52:13.051Z,27.26
2022-08-05T23:57:19.477Z,26.16
